Terminal Aerodrome Forecast
Issued by NWS

Home | Current Version | Previous Version | Graphics & Text | Print | Product List | Glossary On
Versions: 1 2 3 4 5 6 7 8 9 10 11 12 13 14 15 16
000
FTUS42 KMHX 221130
TAFPGV
TAF
KPGV 221130Z 2212/2312 VRB03KT P6SM SCT015 BKN040
      TEMPO 2212/2214 5SM BR BKN015
     FM221600 34011KT P6SM SCT050
     FM222200 01007KT P6SM FEW250
      AMD LTD TO CLD VIS AND WIND=

USA.gov is the U.S. government's official web portal to all federal, state and local government web resources and services.